Flight Track Log - Related Links

Times and Time Zones

All times are in EDT time to prevent confusion due to time zone crossing. See the MAS17 flight status page for this flight to view local times or setup timezone preferences in your user account.

Time Position Orientation Groundspeed Altitude Reporting Facility
EDT Latitude Longitude Course Direction KTS MPH feet Rate Location/Type
Wed 06:18:47 AM 52.2330 4.6960 127° Southeast 200 230 2,900  Level FlightAware ADS-B
Wed 06:19:06 AM 52.2214 4.7256 120° Southeast 213 245 3,200 1,135 Climbing FlightAware ADS-B
Wed 06:19:24 AM 52.2126 4.7520 116° Southeast 220 253 3,600 1,667 Climbing FlightAware ADS-B
Wed 06:19:42 AM 52.2044 4.7781 116° Southeast 221 254 4,200 1,429 Climbing FlightAware ADS-B
Wed 06:20:06 AM 52.1911 4.8155 120° Southeast 246 283 4,600 933 Climbing FlightAware ADS-B
Wed 06:20:27 AM 52.1789 4.8506 116° Southeast 267 307 4,900 1,200 Climbing FlightAware ADS-B
Wed 06:20:41 AM 52.1752 4.8791 91° East 274 315 5,300 1,750 Climbing FlightAware ADS-B
Wed 06:20:51 AM 52.1770 4.8995 79° East 274 315 5,600 1,935 Climbing FlightAware ADS-B
Wed 06:21:12 AM 52.1844 4.9400 74° East 281 323 6,300 1,957 Climbing FlightAware ADS-B
Wed 06:21:37 AM 52.1941 4.9916 74° East 282 325 7,100 2,129 Climbing FlightAware ADS-B
Wed 06:21:43 AM 52.1968 5.0052 72° East 287 330 7,400 2,182 Climbing FlightAware ADS-B
Wed 06:21:59 AM 52.2029 5.0366 73° East 290 334 7,900 1,902 Climbing FlightAware ADS-B
Wed 06:22:24 AM 52.2095 5.0901 83° East 297 342 8,700 1,857 Climbing FlightAware ADS-B
Wed 06:22:41 AM 52.2118 5.1291 86° East 300 345 9,200 1,875 Climbing FlightAware ADS-B
Wed 06:22:56 AM 52.2138 5.1615 84° East 303 349 9,700 1,935 Climbing FlightAware ADS-B
Wed 06:23:12 AM 52.2159 5.1976 85° East 306 352 10,200 1,355 Climbing FlightAware ADS-B
Wed 06:23:27 AM 52.2179 5.2332 86° East 319 367 10,400 989 Climbing FlightAware ADS-B (EHGR / GLZ)
Wed 06:24:43 AM 52.2288 5.4332 85° East 377 434 11,700 1,125 Climbing FlightAware ADS-B
Wed 06:25:19 AM 52.2345 5.5399 85° East 399 459 12,500 1,652 Climbing FlightAware ADS-B
Wed 06:25:52 AM 52.2398 5.6400 85° East 405 466 13,600 2,027 Climbing FlightAware ADS-B
Wed 06:26:33 AM 52.2460 5.7563 85° East 412 474 15,000 1,923 Climbing FlightAware ADS-B
Wed 06:27:10 AM 52.2523 5.8792 85° East 416 479 16,100 1,853 Climbing FlightAware ADS-B
Wed 06:27:41 AM 52.2572 5.9766 85° East 421 484 17,100 1,935 Climbing FlightAware ADS-B
Wed 06:28:12 AM 52.2621 6.0750 85° East 423 487 18,100 1,840 Climbing FlightAware ADS-B
Wed 06:28:56 AM 52.2689 6.2143 86° East 429 494 19,400 1,671 Climbing FlightAware ADS-B
Wed 06:29:31 AM 52.2744 6.3281 86° East 437 503 20,300 1,477 Climbing FlightAware ADS-B
Wed 06:30:01 AM 52.2788 6.4192 86° East 442 509 21,000 1,500 Climbing FlightAware ADS-B (EHGR / GLZ)
Wed 06:30:31 AM 52.2837 6.5265 86° East 446 513 21,800 968 Climbing FlightAware ADS-B (EHGR / GLZ)
Wed 06:31:03 AM 52.2888 6.6356 86° East 449 517 22,000 273 Climbing FlightAware ADS-B
Wed 06:31:37 AM 52.2937 6.7464 86° East 451 519 22,100 957 Climbing FlightAware ADS-B (EHGR / GLZ)
Wed 06:32:12 AM 52.2991 6.8701 86° East 455 524 23,100 1,421 Climbing FlightAware ADS-B
Wed 06:32:53 AM 52.3052 7.0118 86° East 461 531 23,900 1,200 Climbing FlightAware ADS-B
Wed 06:33:32 AM 52.3109 7.1501 86° East 467 537 24,700 1,250 Climbing FlightAware ADS-B
Wed 06:34:05 AM 52.3156 7.2659 86° East 470 541 25,400 1,238 Climbing FlightAware ADS-B
Wed 06:34:35 AM 52.3198 7.3739 86° East 475 547 26,000 1,100 Climbing FlightAware ADS-B
Wed 06:35:05 AM 52.3239 7.4806 87° East 478 550 26,500 984 Climbing FlightAware ADS-B
Wed 06:35:36 AM 52.3279 7.5875 87° East 482 555 27,000 968 Climbing FlightAware ADS-B
Wed 06:36:07 AM 52.3322 7.7048 87° East 487 560 27,500 984 Climbing FlightAware ADS-B
Wed 06:36:37 AM 52.3360 7.8113 87° East 490 564 28,000 952 Climbing FlightAware ADS-B
Wed 06:37:10 AM 52.3404 7.9384 87° East 493 567 28,500 938 Climbing FlightAware ADS-B
Wed 06:37:41 AM 52.3440 8.0468 87° East 495 570 29,000 885 Climbing FlightAware ADS-B
Wed 06:38:11 AM 52.3478 8.1603 87° East 497 572 29,400 1,130 Climbing FlightAware ADS-B
Wed 06:38:50 AM 52.3524 8.3066 87° East 493 567 30,300 1,247 Climbing FlightAware ADS-B
Wed 06:39:28 AM 52.3567 8.4488 87° East 488 562 31,000 519 Climbing FlightAware ADS-B
Wed 06:40:11 AM 52.3612 8.6005 87° East 487 560 31,000  Level FlightAware ADS-B
Wed 06:41:11 AM 52.3673 8.8232 88° East 487 560 31,000  Level FlightAware ADS-B
Wed 06:41:52 AM 52.3712 8.9764 88° East 486 559 31,000  Level FlightAware ADS-B
Wed 06:42:32 AM 52.3747 9.1179 88° East 486 559 31,000  Level FlightAware ADS-B
Wed 06:43:04 AM 52.3774 9.2308 88° East 486 559 31,000  Level FlightAware ADS-B
Wed 06:43:44 AM 52.3799 9.3429 88° East 486 559 31,000  Level FlightAware ADS-B
Wed 06:44:34 AM 52.3848 9.5718 88° East 487 560 31,000  Level FlightAware ADS-B
Wed 06:45:17 AM 52.3871 9.6864 88° East 487 560 31,000  Level FlightAware ADS-B
Wed 06:45:49 AM 52.3900 9.8422 88° East 487 560 31,000  Level FlightAware ADS-B
Wed 06:46:26 AM 52.3921 9.9637 89° East 488 562 31,000  Level FlightAware ADS-B
Wed 06:50:13 AM 52.4432 10.8096 80° East 490 564 31,000  Level FlightAware ADS-B
Wed 06:50:48 AM 52.4566 10.9422 81° East 488 562 31,000  Level FlightAware ADS-B
Wed 06:51:23 AM 52.4627 11.0715 89° East 487 560 31,000  Level FlightAware ADS-B
Wed 06:51:59 AM 52.4629 11.2040 91° East 487 560 31,000  Level FlightAware ADS-B
Wed 06:52:30 AM 52.4610 11.3157 92° East 486 559 31,000  Level FlightAware ADS-B
Wed 06:53:00 AM 52.4593 11.4280 91° East 485 558 31,000  Level FlightAware ADS-B
Wed 06:53:31 AM 52.4563 11.5407 94° East 484 557 31,000  Level FlightAware ADS-B
Wed 06:54:02 AM 52.4508 11.6501 95° East 484 557 31,000  Level FlightAware ADS-B
Wed 06:54:38 AM 52.4443 11.7812 94° East 483 556 31,000  Level FlightAware ADS-B
Wed 06:55:10 AM 52.4389 11.8999 94° East 483 556 31,000  Level FlightAware ADS-B
Wed 06:55:40 AM 52.4339 12.0104 94° East 482 555 31,000  Level FlightAware ADS-B
Wed 06:56:10 AM 52.4291 12.1173 94° East 482 555 31,000  Level FlightAware ADS-B
Wed 06:56:41 AM 52.4240 12.2298 94° East 481 554 31,000  Level FlightAware ADS-B
Wed 06:57:15 AM 52.4183 12.3493 95° East 481 554 31,000  Level FlightAware ADS-B
Wed 06:57:45 AM 52.4126 12.4642 95° East 481 554 31,000  Level FlightAware ADS-B
Wed 06:58:16 AM 52.4071 12.5740 95° East 480 552 31,000  Level FlightAware ADS-B (ETSF / FEL)
Wed 06:58:48 AM 52.4012 12.6887 95° East 480 552 31,000  Level FlightAware ADS-B
Wed 06:59:18 AM 52.3954 12.7991 95° East 479 551 31,000  Level FlightAware ADS-B
Wed 06:59:51 AM 52.3893 12.9141 95° East 478 550 31,000  Level FlightAware ADS-B
Wed 07:00:25 AM 52.3825 13.0383 95° East 478 550 31,000  Level FlightAware ADS-B
Wed 07:01:06 AM 52.3743 13.1868 95° East 477 549 31,000  Level FlightAware ADS-B
Wed 07:01:37 AM 52.3679 13.2979 95° East 477 549 31,000  Level FlightAware ADS-B
Wed 07:02:12 AM 52.3611 13.4150 95° East 475 547 31,000  Level FlightAware ADS-B
Wed 07:02:47 AM 52.3534 13.5462 96° East 474 545 31,000  Level FlightAware ADS-B
Wed 07:03:24 AM 52.3455 13.6793 96° East 474 545 31,000  Level FlightAware ADS-B
Wed 07:03:55 AM 52.3391 13.7843 96° East 473 544 31,000  Level FlightAware ADS-B
Wed 07:04:25 AM 52.3322 13.8950 96° East 473 544 31,000  Level FlightAware ADS-B
Wed 07:04:57 AM 52.3251 14.0070 96° East 473 544 31,000  Level FlightAware ADS-B (KMTJ)
Wed 07:05:27 AM 52.3182 14.1161 96° East 473 544 31,000  Level FlightAware ADS-B (KMTJ)
Wed 07:06:00 AM 52.3108 14.2307 96° East 472 543 31,000  Level FlightAware ADS-B
Wed 07:06:32 AM 52.3033 14.3438 96° East 473 544 31,000  Level FlightAware ADS-B
Wed 07:07:04 AM 52.2957 14.4583 96° East 473 544 31,000  Level FlightAware ADS-B
Wed 07:07:35 AM 52.2884 14.5665 96° East 473 544 31,000  Level FlightAware ADS-B
Wed 07:08:08 AM 52.2804 14.6824 96° East 473 544 31,000  Level FlightAware ADS-B
Wed 07:08:38 AM 52.2730 14.7884 97° East 473 544 31,000  Level FlightAware ADS-B (KMTJ)
Wed 07:09:15 AM 52.2643 14.9115 97° East 474 545 31,000  Level FlightAware ADS-B
Wed 07:09:46 AM 52.2559 15.0299 97° East 474 545 31,000  Level FlightAware ADS-B (KMTJ)
Wed 07:10:18 AM 52.2476 15.1441 97° East 475 547 31,000  Level FlightAware ADS-B (KMTJ)
Wed 07:10:50 AM 52.2391 15.2585 97° East 476 548 31,000  Level FlightAware ADS-B
Wed 07:11:22 AM 52.2305 15.3737 97° East 477 549 31,000  Level FlightAware ADS-B
Wed 07:11:58 AM 52.2215 15.4926 97° East 478 550 31,000  Level FlightAware ADS-B (KMTJ)
Wed 07:12:28 AM 52.2130 15.6031 97° East 478 550 31,000  Level FlightAware ADS-B (KMTJ)
Wed 07:12:58 AM 52.2048 15.7099 97° East 478 550 31,000  Level FlightAware ADS-B (KMTJ)
Wed 07:13:38 AM 52.1934 15.8543 97° East 477 549 31,000  Level FlightAware ADS-B (KMTJ)
Wed 07:14:17 AM 52.1859 15.9481 98° East 477 549 31,000  Level FlightAware ADS-B
Wed 07:14:57 AM 52.1722 16.1176 98° East 476 548 31,000  Level FlightAware ADS-B (KMTJ)
Wed 07:15:36 AM 52.1592 16.2750 98° East 476 548 31,000  Level FlightAware ADS-B (KMTJ)
Wed 07:16:06 AM 52.1480 16.4089 98° East 477 549 31,000  Level FlightAware ADS-B
Wed 07:16:42 AM 52.1456 16.4380 98° East 477 549 31,000  Level FlightAware ADS-B
Wed 07:17:35 AM 52.1210 16.7251 98° East 478 550 31,000  Level FlightAware ADS-B
Wed 07:18:40 AM 52.1183 16.7563 98° East 478 550 31,000  Level FlightAware ADS-B
Wed 07:19:17 AM 52.0996 16.9678 98° East 478 550 31,000  Level FlightAware ADS-B
Wed 07:20:07 AM 52.0755 17.2351 99° East 479 551 31,000  Level FlightAware ADS-B
Wed 07:20:48 AM 52.0620 17.3806 99° East 479 551 31,000  Level FlightAware ADS-B
Wed 07:21:18 AM 52.0559 17.4465 99° East 479 551 31,000  Level FlightAware ADS-B
Wed 07:21:55 AM 52.0403 17.6124 98° East 477 549 31,000  Level FlightAware ADS-B (CAD4 / YZZ)
Wed 07:22:37 AM 52.0291 17.7287 99° East 480 552 31,000 79 Level FlightAware ADS-B
Wed 07:23:11 AM 52.0145 17.8817 98° East 476 548 31,100 277 Climbing FlightAware ADS-B (CAD4 / YZZ)
Wed 07:23:42 AM 52.0042 17.9867 99° East 475 547 31,300 417 Climbing FlightAware ADS-B (CAD4 / YZZ)
Wed 07:24:23 AM 51.9917 18.1129 99° East 478 550 31,600 411 Climbing FlightAware ADS-B
Wed 07:24:55 AM 51.9783 18.2472 99° East 480 552 31,800 387 Climbing FlightAware ADS-B
Wed 07:25:25 AM 51.9678 18.3508 99° East 480 552 32,000 448 Climbing FlightAware ADS-B
Wed 07:26:02 AM 51.9542 18.4839 100° East 480 552 32,300 441 Climbing FlightAware ADS-B
Wed 07:26:33 AM 51.9422 18.6008 100° East 477 549 32,500 375 Climbing FlightAware ADS-B
Wed 07:27:06 AM 51.9306 18.7113 100° East 473 544 32,700 333 Climbing FlightAware ADS-B
Wed 07:27:27 AM 51.9229 18.7851 99° East 471 542 32,800 353 Climbing FlightAware ADS-B (CAD4 / YZZ)
Wed 07:27:57 AM 51.9118 18.8901 99° East 472 543 33,000 197 Climbing FlightAware ADS-B (CAD4 / YZZ)
Wed 07:28:28 AM 51.9001 19.0005 100° East 476 548 33,000  Level FlightAware ADS-B
Wed 07:28:59 AM 51.8885 19.1080 100° East 475 547 33,000  Level FlightAware ADS-B
Wed 07:29:32 AM 51.8757 19.2249 100° East 473 544 33,000  Level FlightAware ADS-B
Wed 07:30:13 AM 51.8604 19.3642 100° East 469 540 33,000  Level FlightAware ADS-B (CAD4 / YZZ)
Wed 07:30:55 AM 51.8440 19.5113 100° East 471 542 33,000  Level FlightAware ADS-B
Wed 07:31:32 AM 51.8294 19.6410 100° East 471 542 33,000  Level FlightAware ADS-B
Wed 07:32:02 AM 51.8178 19.7437 100° East 471 542 33,000  Level FlightAware ADS-B
Wed 07:32:38 AM 51.8051 19.8546 101° East 471 542 33,000  Level FlightAware ADS-B
Wed 07:33:11 AM 51.7911 19.9751 100° East 468 539 33,000  Level FlightAware ADS-B (CAD4 / YZZ)
Wed 07:33:41 AM 51.7795 20.0755 100° East 468 539 33,000  Level FlightAware ADS-B (CAD4 / YZZ)
Wed 07:34:12 AM 51.7656 20.1937 101° East 470 541 33,000  Level FlightAware ADS-B (EPSY / SZY)
Wed 07:34:42 AM 51.7548 20.2844 100° East 468 539 33,000  Level FlightAware ADS-B (CAD4 / YZZ)
Wed 07:35:12 AM 51.7423 20.3889 100° East 468 539 33,000  Level FlightAware ADS-B (CAD4 / YZZ)
Wed 07:35:43 AM 51.7296 20.4945 101° East 468 539 33,000  Level FlightAware ADS-B (CAD4 / YZZ)
Wed 07:36:13 AM 51.7171 20.5983 101° East 468 539 33,000  Level FlightAware ADS-B (CAD4 / YZZ)
Wed 07:36:45 AM 51.7029 20.7145 101° East 472 543 33,000  Level FlightAware ADS-B
Wed 07:37:15 AM 51.6902 20.8171 101° East 473 544 33,000  Level FlightAware ADS-B
Wed 07:37:45 AM 51.6773 20.9211 101° East 473 544 33,000  Level FlightAware ADS-B
Wed 07:38:17 AM 51.6628 21.0368 102° East 473 544 33,000  Level FlightAware ADS-B (EPSY / SZY)
Wed 07:38:42 AM 51.6525 21.1173 101° East 472 543 33,000  Level FlightAware ADS-B (CAD4 / YZZ)
Wed 07:39:13 AM 51.6388 21.2254 102° East 474 545 33,000  Level FlightAware ADS-B
Wed 07:39:24 AM 51.6347 21.2577 101° East 472 543 33,000  Level FlightAware ADS-B (CAD4 / YZZ)
Wed 07:39:41 AM 51.6271 21.3169 101° East 472 543 33,000  Level FlightAware ADS-B (CAD4 / YZZ)
Wed 07:40:13 AM 51.6149 21.4120 102° East 475 547 33,000  Level FlightAware ADS-B
Wed 07:40:51 AM 51.5949 21.5656 102° East 475 547 33,000  Level FlightAware ADS-B (EPSY / SZY)
Wed 07:41:22 AM 51.5892 21.6090 102° East 475 547 33,000  Level FlightAware ADS-B
Wed 07:41:53 AM 51.5735 21.7289 102° East 475 547 33,000  Level FlightAware ADS-B
Wed 07:42:32 AM 51.5536 21.8785 102° East 477 549 33,000  Level FlightAware ADS-B
Wed 07:43:04 AM 51.5344 22.0211 102° East 477 549 33,000  Level FlightAware ADS-B
Wed 07:43:42 AM 51.5170 22.1494 102° East 475 547 33,000  Level FlightAware ADS-B (CAD4 / YZZ)
Wed 07:44:13 AM 51.5029 22.2528 102° East 475 547 33,000  Level FlightAware ADS-B (CAD4 / YZZ)
Wed 07:45:12 AM 51.4758 22.4493 102° East 475 547 33,000  Level FlightAware ADS-B (CAD4 / YZZ)
Wed 07:45:43 AM 51.4605 22.5589 102° East 475 547 33,000  Level FlightAware ADS-B (CAD4 / YZZ)
Wed 07:45:58 AM 51.4519 22.6203 103° East 479 551 33,000  Level FlightAware ADS-B
Wed 07:46:28 AM 51.4373 22.7236 102° East 475 547 33,000  Level FlightAware ADS-B (CAD4 / YZZ)
Wed 07:46:59 AM 51.4226 22.8269 102° East 477 549 33,000  Level FlightAware ADS-B (CAD4 / YZZ)
Wed 07:47:42 AM 51.4009 22.9788 102° East 479 551 33,000  Level FlightAware ADS-B (CAD4 / YZZ)
Wed 07:48:14 AM 51.3858 23.0841 103° East 482 555 33,000  Level FlightAware ADS-B
Wed 07:48:57 AM 51.3629 23.2400 103° East 480 552 33,000  Level FlightAware ADS-B (CAD4 / YZZ)
Wed 07:49:28 AM 51.3471 23.3453 104° East 481 554 33,000  Level FlightAware ADS-B (CAD4 / YZZ)
Wed 07:49:58 AM 51.3310 23.4440 104° East 481 554 33,000  Level FlightAware ADS-B (CAD4 / YZZ)
Wed 07:50:51 AM 51.3072 23.5885 105° East 486 559 33,000  Level FlightAware ADS-B
Wed 07:51:28 AM 51.2793 23.7582 104° East 485 558 33,000  Level FlightAware ADS-B (CAD4 / YZZ)
Wed 07:51:32 AM 51.2769 23.7728 104° East 485 558 33,000  Level FlightAware ADS-B (CAD4 / YZZ)
Wed 07:52:03 AM 51.2586 23.8831 105° East 488 562 33,000  Level FlightAware ADS-B
Wed 07:52:33 AM 51.2422 23.9823 105° East 487 560 33,000  Level FlightAware ADS-B
Wed 07:54:12 AM 51.1844 24.3303 105° East 485 558 33,000  Level FlightAware ADS-B
Wed 07:55:48 AM 51.1730 24.3985 104° East 482 555 33,000 Level FlightAware ADS-B
Wed 07:58:00 AM 51.1320 24.8415 98° East  Level Estimated
Wed 07:59:00 AM 51.1128 25.0427 99° East  Level Estimated
Wed 08:00:00 AM 51.0932 25.2436 99° East  Level Estimated
Wed 08:01:00 AM 51.0733 25.4444 99° East  Level Estimated
Wed 08:02:00 AM 51.0531 25.6450 99° East  Level Estimated
Wed 08:03:00 AM 51.0325 25.8455 99° East  Level Estimated
Wed 08:04:00 AM 51.0116 26.0457 99° East  Level Estimated
Wed 08:05:00 AM 50.9903 26.2458 100° East  Level Estimated
Wed 08:06:00 AM 50.9687 26.4457 100° East  Level Estimated
Wed 08:07:00 AM 50.9468 26.6454 100° East  Level Estimated
Wed 08:08:00 AM 50.9245 26.8449 100° East  Level Estimated
Wed 08:09:00 AM 50.9019 27.0442 100° East  Level Estimated
Wed 08:10:00 AM 50.8789 27.2434 100° East  Level Estimated
Wed 08:11:00 AM 50.8556 27.4423 100° East  Level Estimated
Wed 08:12:00 AM 50.8320 27.6410 101° East  Level Estimated
Wed 08:13:00 AM 50.8080 27.8396 101° East  Level Estimated
Wed 08:14:00 AM 50.7836 28.0379 101° East  Level Estimated
Wed 08:15:00 AM 50.7590 28.2360 101° East  Level Estimated
Wed 08:16:00 AM 50.7340 28.4339 101° East  Level Estimated
Wed 08:17:00 AM 50.7087 28.6316 101° East  Level Estimated
Wed 08:18:00 AM 50.6830 28.8291 102° East  Level Estimated
Wed 08:19:00 AM 50.6570 29.0263 102° East  Level Estimated
Wed 08:20:00 AM 50.6307 29.2234 102° East  Level Estimated
Wed 08:21:00 AM 50.6041 29.4202 102° East  Level Estimated
Wed 08:22:00 AM 50.5771 29.6168 102° East  Level Estimated
Wed 08:23:00 AM 50.5498 29.8131 102° East  Level Estimated
Wed 08:24:00 AM 50.5221 30.0093 102° East  Level Estimated
Wed 08:25:00 AM 50.4941 30.2052 103° East  Level Estimated
Wed 08:26:00 AM 50.4658 30.4009 103° East  Level Estimated
Wed 08:27:00 AM 50.4372 30.5963 103° East  Level Estimated
Wed 08:28:00 AM 50.4082 30.7915 103° East  Level Estimated
Wed 08:29:00 AM 50.3790 30.9865 103° East  Level Estimated
Wed 08:30:00 AM 50.3494 31.1812 103° East  Level Estimated
Wed 08:31:00 AM 50.3194 31.3757 103° East  Level Estimated
Wed 08:32:00 AM 50.2892 31.5699 104° East  Level Estimated
Wed 08:33:00 AM 50.2586 31.7639 104° East  Level Estimated
Wed 08:34:00 AM 50.2277 31.9576 104° East  Level Estimated
Wed 08:35:00 AM 50.1965 32.1511 104° East  Level Estimated
Wed 08:36:00 AM 50.1649 32.3443 104° East  Level Estimated
Wed 08:37:00 AM 50.1330 32.5373 104° East  Level Estimated
Wed 08:38:00 AM 50.1009 32.7300 105° East  Level Estimated
Wed 08:39:00 AM 50.0684 32.9224 105° East  Level Estimated
Wed 08:40:00 AM 50.0355 33.1146 105° East  Level Estimated
Wed 08:41:00 AM 50.0024 33.3065 105° East  Level Estimated
Wed 08:42:00 AM 49.9689 33.4982 105° East  Level Estimated
Wed 08:43:00 AM 49.9352 33.6896 105° East  Level Estimated
Wed 08:44:00 AM 49.9011 33.8807 105° East  Level Estimated
Wed 08:45:00 AM 49.8667 34.0715 106° East  Level Estimated
Wed 08:46:00 AM 49.8320 34.2621 106° East  Level Estimated
Wed 08:47:00 AM 49.7970 34.4524 106° East  Level Estimated
Wed 08:48:00 AM 49.7616 34.6425 106° East  Level Estimated
Wed 08:49:00 AM 49.7260 34.8322 106° East  Level Estimated
Wed 08:50:00 AM 49.6900 35.0217 106° East  Level Estimated
Wed 08:51:00 AM 49.6538 35.2109 106° East  Level Estimated
Wed 08:52:00 AM 49.6172 35.3998 107° East  Level Estimated
Wed 08:53:00 AM 49.5803 35.5884 107° East  Level Estimated
Wed 08:54:00 AM 49.5431 35.7767 107° East  Level Estimated
Wed 08:55:00 AM 49.5056 35.9648 107° East  Level Estimated
Wed 08:56:00 AM 49.4678 36.1525 107° East  Level Estimated
Wed 08:57:00 AM 49.4297 36.3400 107° East  Level Estimated
Wed 08:58:00 AM 49.3913 36.5272 107° East  Level Estimated
Wed 08:59:00 AM 49.3526 36.7141 108° East  Level Estimated
Wed 09:00:00 AM 49.3136 36.9006 108° East  Level Estimated
Wed 09:01:00 AM 49.2743 37.0869 108° East  Level Estimated
Wed 09:02:00 AM 49.2347 37.2729 108° East  Level Estimated
Wed 09:03:00 AM 49.1948 37.4586 108° East  Level Estimated
Wed 09:04:00 AM 49.1546 37.6440 108° East  Level Estimated
Wed 09:05:00 AM 49.1142 37.8291 108° East  Level Estimated
Wed 09:06:00 AM 49.0734 38.0139 109° East  Level Estimated
Wed 09:07:00 AM 49.0323 38.1984 109° East  Level Estimated
Wed 09:08:00 AM 48.9909 38.3825 109° East  Level Estimated
Wed 09:09:00 AM 48.9492 38.5664 109° East  Level Estimated
Wed 09:10:00 AM 48.9073 38.7500 109° East  Level Estimated
Wed 09:11:00 AM 48.8650 38.9332 109° East  Level Estimated
Wed 09:12:00 AM 48.8225 39.1162 109° East  Level Estimated
Wed 09:13:00 AM 48.7797 39.2988 110° East  Level Estimated
Wed 09:14:00 AM 48.7365 39.4811 110° East  Level Estimated
Wed 09:15:00 AM 48.6931 39.6631 110° East  Level Estimated
Wed 09:16:00 AM 48.6494 39.8448 110° East  Level Estimated
Wed 09:17:00 AM 48.6055 40.0262 110° East  Level Estimated
Wed 09:18:00 AM 48.5612 40.2073 110° East  Level Estimated
Wed 09:19:00 AM 48.5167 40.3880 110° East  Level Estimated
Wed 09:20:00 AM 48.4718 40.5684 110° East  Level Estimated
Wed 09:21:00 AM 48.4267 40.7485 111° Southeast  Level Estimated
Wed 09:22:00 AM 48.3813 40.9283 111° Southeast  Level Estimated
Wed 09:23:00 AM 48.3357 41.1078 111° Southeast  Level Estimated
Wed 09:24:00 AM 48.2897 41.2869 111° Southeast  Level Estimated
Wed 09:25:00 AM 48.2435 41.4657 111° Southeast  Level Estimated
Wed 09:26:00 AM 48.1970 41.6442 111° Southeast  Level Estimated
Wed 09:27:00 AM 48.1502 41.8224 111° Southeast  Level Estimated
Wed 09:28:00 AM 48.1032 42.0003 112° Southeast  Level Estimated
Wed 09:29:00 AM 48.0558 42.1778 112° Southeast  Level Estimated
Wed 09:30:00 AM 48.0082 42.3550 112° Southeast  Level Estimated
Wed 09:31:00 AM 47.9604 42.5318 112° Southeast  Level Estimated
Wed 09:32:00 AM 47.9122 42.7084 112° Southeast  Level Estimated
Wed 09:33:00 AM 47.8638 42.8846 112° Southeast  Level Estimated
Wed 09:34:00 AM 47.8151 43.0604 112° Southeast  Level Estimated
Wed 09:35:00 AM 47.7662 43.2360 112° Southeast  Level Estimated
Wed 09:36:00 AM 47.7170 43.4112 113° Southeast  Level Estimated
Wed 09:37:00 AM 47.6675 43.5861 113° Southeast  Level Estimated
Wed 09:38:00 AM 47.6177 43.7606 113° Southeast  Level Estimated
Wed 09:39:00 AM 47.5677 43.9348 113° Southeast  Level Estimated
Wed 09:40:00 AM 47.5174 44.1087 113° Southeast  Level Estimated
Wed 09:41:00 AM 47.4669 44.2823 113° Southeast  Level Estimated
Wed 09:42:00 AM 47.4161 44.4555 113° Southeast  Level Estimated
Wed 09:43:00 AM 47.3651 44.6284 114° Southeast  Level Estimated
Wed 09:44:00 AM 47.3137 44.8009 114° Southeast  Level Estimated
Wed 09:45:00 AM 47.2622 44.9731 114° Southeast  Level Estimated
Wed 09:46:00 AM 47.2103 45.1450 114° Southeast  Level Estimated
Wed 09:47:00 AM 47.1582 45.3165 114° Southeast  Level Estimated
Wed 09:48:00 AM 47.1059 45.4877 114° Southeast  Level Estimated
Wed 09:49:00 AM 47.0533 45.6586 114° Southeast  Level Estimated
Wed 09:50:00 AM 47.0004 45.8291 114° Southeast  Level Estimated
Wed 09:51:00 AM 46.9473 45.9993 115° Southeast  Level Estimated
Wed 09:52:00 AM 46.8940 46.1692 115° Southeast  Level Estimated
Wed 09:53:00 AM 46.8404 46.3387 115° Southeast  Level Estimated
Wed 09:54:00 AM 46.7865 46.5079 115° Southeast  Level Estimated
Wed 09:55:00 AM 46.7324 46.6767 115° Southeast  Level Estimated
Wed 09:56:00 AM 46.6780 46.8452 115° Southeast  Level Estimated
Wed 09:57:00 AM 46.6234 47.0133 115° Southeast  Level Estimated
Wed 09:58:00 AM 46.5686 47.1812 115° Southeast  Level Estimated
Wed 09:59:00 AM 46.5135 47.3486 115° Southeast  Level Estimated
Wed 10:00:00 AM 46.4581 47.5158 116° Southeast  Level Estimated
Wed 10:01:00 AM 46.4026 47.6826 116° Southeast  Level Estimated
Wed 10:02:00 AM 46.3467 47.8490 116° Southeast  Level Estimated
Wed 10:03:00 AM 46.2907 48.0151 116° Southeast  Level Estimated
Wed 10:04:00 AM 46.2344 48.1809 116° Southeast  Level Estimated
Wed 10:05:00 AM 46.1778 48.3464 116° Southeast  Level Estimated
Wed 10:06:00 AM 46.1211 48.5114 116° Southeast  Level Estimated
Wed 10:07:00 AM 46.0640 48.6762 116° Southeast  Level Estimated
Wed 10:08:00 AM 46.0068 48.8406 117° Southeast  Level Estimated
Wed 10:09:00 AM 45.9493 49.0047 117° Southeast  Level Estimated
Wed 10:10:00 AM 45.8916 49.1684 117° Southeast  Level Estimated
Wed 10:11:00 AM 45.8336 49.3318 117° Southeast  Level Estimated
Wed 10:12:00 AM 45.7754 49.4949 117° Southeast  Level Estimated
Wed 10:13:00 AM 45.7170 49.6576 117° Southeast  Level Estimated
Wed 10:14:00 AM 45.6583 49.8199 117° Southeast  Level Estimated
Wed 10:15:00 AM 45.5995 49.9820 117° Southeast  Level Estimated
Wed 10:16:00 AM 45.5404 50.1437 118° Southeast  Level Estimated
Wed 10:17:00 AM 45.4810 50.3050 118° Southeast  Level Estimated
Wed 10:18:00 AM 45.4215 50.4660 118° Southeast  Level Estimated
Wed 10:19:00 AM 45.3617 50.6267 118° Southeast  Level Estimated
Wed 10:20:00 AM 45.3016 50.7870 118° Southeast  Level Estimated
Wed 10:21:00 AM 45.2414 50.9470 118° Southeast  Level Estimated
Wed 10:22:00 AM 45.1809 51.1066 118° Southeast  Level Estimated
Wed 10:23:00 AM 45.1203 51.2659 118° Southeast  Level Estimated
Wed 10:24:00 AM 45.0593 51.4249 118° Southeast  Level Estimated
Wed 10:25:00 AM 44.9982 51.5835 119° Southeast  Level Estimated
Wed 10:26:00 AM 44.9369 51.7418 119° Southeast  Level Estimated
Wed 10:27:00 AM 44.8753 51.8998 119° Southeast  Level Estimated
Wed 10:28:00 AM 44.8135 52.0574 119° Southeast  Level Estimated
Wed 10:29:00 AM 44.7515 52.2147 119° Southeast  Level Estimated
Wed 10:30:00 AM 44.6893 52.3716 119° Southeast  Level Estimated
Wed 10:31:00 AM 44.6269 52.5282 119° Southeast  Level Estimated
Wed 10:32:00 AM 44.5643 52.6845 119° Southeast  Level Estimated
Wed 10:33:00 AM 44.5014 52.8404 119° Southeast  Level Estimated
Wed 10:34:00 AM 44.4384 52.9960 120° Southeast  Level Estimated
Wed 10:35:00 AM 44.3751 53.1513 120° Southeast  Level Estimated
Wed 10:36:00 AM 44.3116 53.3062 120° Southeast  Level Estimated
Wed 10:37:00 AM 44.2479 53.4608 120° Southeast  Level Estimated
Wed 10:38:00 AM 44.1840 53.6150 120° Southeast  Level Estimated
Wed 10:39:00 AM 44.1199 53.7689 120° Southeast  Level Estimated
Wed 10:40:00 AM 44.0556 53.9225 120° Southeast  Level Estimated
Wed 10:41:00 AM 43.9911 54.0758 120° Southeast  Level Estimated
Wed 10:42:00 AM 43.9263 54.2287 120° Southeast  Level Estimated
Wed 10:43:00 AM 43.8614 54.3813 121° Southeast  Level Estimated
Wed 10:44:00 AM 43.7963 54.5335 121° Southeast  Level Estimated
Wed 10:45:00 AM 43.7310 54.6854 121° Southeast  Level Estimated
Wed 10:46:00 AM 43.6654 54.8370 121° Southeast  Level Estimated
Wed 10:47:00 AM 43.5997 54.9883 121° Southeast  Level Estimated
Wed 10:48:00 AM 43.5338 55.1392 121° Southeast  Level Estimated
Wed 10:49:00 AM 43.4676 55.2898 121° Southeast  Level Estimated
Wed 10:50:00 AM 43.4013 55.4401 121° Southeast  Level Estimated
Wed 10:51:00 AM 43.3348 55.5900 121° Southeast  Level Estimated
Wed 10:52:00 AM 43.2681 55.7396 121° Southeast  Level Estimated
Wed 10:53:00 AM 43.2012 55.8889 122° Southeast  Level Estimated
Wed 10:54:00 AM 43.1340 56.0378 122° Southeast  Level Estimated
Wed 10:55:00 AM 43.0667 56.1865 122° Southeast  Level Estimated
Wed 10:56:00 AM 42.9993 56.3348 122° Southeast  Level Estimated
Wed 10:57:00 AM 42.9316 56.4827 122° Southeast  Level Estimated
Wed 10:58:00 AM 42.8637 56.6304 122° Southeast  Level Estimated
Wed 10:59:00 AM 42.7957 56.7777 122° Southeast  Level Estimated
Wed 11:00:00 AM 42.7274 56.9247 122° Southeast  Level Estimated
Wed 11:01:00 AM 42.6590 57.0714 122° Southeast  Level Estimated
Wed 11:02:00 AM 42.5903 57.2177 122° Southeast  Level Estimated
Wed 11:03:00 AM 42.5215 57.3637 123° Southeast  Level Estimated
Wed 11:04:00 AM 42.4525 57.5094 123° Southeast  Level Estimated
Wed 11:05:00 AM 42.3834 57.6548 123° Southeast  Level Estimated
Wed 11:06:00 AM 42.3140 57.7999 123° Southeast  Level Estimated
Wed 11:07:00 AM 42.2444 57.9446 123° Southeast  Level Estimated
Wed 11:08:00 AM 42.1747 58.0891 123° Southeast  Level Estimated
Wed 11:09:00 AM 42.1048 58.2332 123° Southeast  Level Estimated
Wed 11:10:00 AM 42.0347 58.3770 123° Southeast  Level Estimated
Wed 11:11:00 AM 41.9645 58.5204 123° Southeast  Level Estimated
Wed 11:12:00 AM 41.8940 58.6636 123° Southeast  Level Estimated
Wed 11:13:00 AM 41.8234 58.8064 124° Southeast  Level Estimated
Wed 11:14:00 AM 41.7526 58.9490 124° Southeast  Level Estimated
Wed 11:15:00 AM 41.6816 59.0912 124° Southeast  Level Estimated
Wed 11:16:00 AM 41.6105 59.2331 124° Southeast  Level Estimated
Wed 11:17:00 AM 41.5392 59.3746 124° Southeast  Level Estimated
Wed 11:18:00 AM 41.4677 59.5159 124° Southeast  Level Estimated
Wed 11:19:00 AM 41.3960 59.6569 124° Southeast  Level Estimated
Wed 11:20:00 AM 41.3242 59.7975 124° Southeast  Level Estimated
Wed 11:21:00 AM 41.2521 59.9379 124° Southeast  Level Estimated
Wed 11:22:00 AM 41.1800 60.0779 124° Southeast  Level Estimated
Wed 11:23:00 AM 41.1076 60.2176 124° Southeast  Level Estimated
Wed 11:24:00 AM 41.0351 60.3570 125° Southeast  Level Estimated
Wed 11:25:00 AM 40.9624 60.4961 125° Southeast  Level Estimated
Wed 11:26:00 AM 40.8895 60.6349 125° Southeast  Level Estimated
Wed 11:27:00 AM 40.8165 60.7734 125° Southeast  Level Estimated
Wed 11:28:00 AM 40.7433 60.9116 125° Southeast  Level Estimated
Wed 11:29:00 AM 40.6700 61.0495 125° Southeast  Level Estimated
Wed 11:30:00 AM 40.5965 61.1871 125° Southeast  Level Estimated
Wed 11:31:00 AM 40.5228 61.3244 125° Southeast  Level Estimated
Wed 11:32:00 AM 40.4490 61.4613 125° Southeast  Level Estimated
Wed 11:33:00 AM 40.3750 61.5980 125° Southeast  Level Estimated
Wed 11:34:00 AM 40.3008 61.7344 125° Southeast  Level Estimated
Wed 11:35:00 AM 40.2265 61.8705 126° Southeast  Level Estimated
Wed 11:36:00 AM 40.1520 62.0062 126° Southeast  Level Estimated
Wed 11:37:00 AM 40.0774 62.1417 126° Southeast  Level Estimated
Wed 11:38:00 AM 40.0026 62.2769 126° Southeast  Level Estimated
Wed 11:39:00 AM 39.9276 62.4118 126° Southeast  Level Estimated
Wed 11:40:00 AM 39.8525 62.5464 126° Southeast  Level Estimated
Wed 11:41:00 AM 39.7773 62.6807 126° Southeast  Level Estimated
Wed 11:42:00 AM 39.7019 62.8147 126° Southeast  Level Estimated
Wed 11:43:00 AM 39.6263 62.9484 126° Southeast  Level Estimated
Wed 11:44:00 AM 39.5506 63.0818 126° Southeast  Level Estimated
Wed 11:45:00 AM 39.4747 63.2150 126° Southeast  Level Estimated
Wed 11:46:00 AM 39.3987 63.3478 126° Southeast  Level Estimated
Wed 11:47:00 AM 39.3225 63.4803 127° Southeast  Level Estimated
Wed 11:48:00 AM 39.2462 63.6126 127° Southeast  Level Estimated
Wed 11:49:00 AM 39.1697 63.7446 127° Southeast  Level Estimated
Wed 11:50:00 AM 39.0930 63.8763 127° Southeast  Level Estimated
Wed 11:51:00 AM 39.0163 64.0076 127° Southeast  Level Estimated
Wed 11:52:00 AM 38.9394 64.1388 127° Southeast  Level Estimated
Wed 11:53:00 AM 38.8623 64.2696 127° Southeast  Level Estimated
Wed 11:54:00 AM 38.7851 64.4001 127° Southeast  Level Estimated
Wed 11:55:00 AM 38.7077 64.5304 127° Southeast  Level Estimated
Wed 11:56:00 AM 38.6302 64.6604 127° Southeast  Level Estimated
Wed 11:57:00 AM 38.5526 64.7901 127° Southeast  Level Estimated
Wed 11:58:00 AM 38.4748 64.9195 127° Southeast  Level Estimated
Wed 11:59:00 AM 38.3969 65.0486 128° Southeast  Level Estimated
Wed 12:00:00 PM 38.3188 65.1775 128° Southeast  Level Estimated
Wed 12:01:00 PM 38.2406 65.3061 128° Southeast  Level Estimated
Wed 12:02:00 PM 38.1622 65.4344 128° Southeast  Level Estimated
Wed 12:03:00 PM 38.0837 65.5624 128° Southeast  Level Estimated
Wed 12:04:00 PM 38.0051 65.6902 128° Southeast  Level Estimated
Wed 12:05:00 PM 37.9263 65.8176 128° Southeast  Level Estimated
Wed 12:06:00 PM 37.8474 65.9449 128° Southeast  Level Estimated
Wed 12:07:00 PM 37.7684 66.0718 128° Southeast  Level Estimated
Wed 12:08:00 PM 37.6892 66.1985 128° Southeast  Level Estimated
Wed 12:09:00 PM 37.6099 66.3249 128° Southeast  Level Estimated
Wed 12:10:00 PM 37.5305 66.4510 128° Southeast  Level Estimated
Wed 12:11:00 PM 37.4509 66.5769 129° Southeast  Level Estimated
Wed 12:12:00 PM 37.3712 66.7024 129° Southeast  Level Estimated
Wed 12:13:00 PM 37.2913 66.8278 129° Southeast  Level Estimated
Wed 12:14:00 PM 37.2113 66.9528 129° Southeast  Level Estimated
Wed 12:15:00 PM 37.1312 67.0776 129° Southeast  Level Estimated
Wed 12:16:00 PM 37.0510 67.2021 129° Southeast  Level Estimated
Wed 12:17:00 PM 36.9706 67.3264 129° Southeast  Level Estimated
Wed 12:18:00 PM 36.8901 67.4504 129° Southeast  Level Estimated
Wed 12:19:00 PM 36.8095 67.5741 129° Southeast  Level Estimated
Wed 12:20:00 PM 36.7287 67.6976 129° Southeast  Level Estimated
Wed 12:21:00 PM 36.6479 67.8208 129° Southeast  Level Estimated
Wed 12:22:00 PM 36.5668 67.9438 129° Southeast  Level Estimated
Wed 12:23:00 PM 36.4857 68.0665 129° Southeast  Level Estimated
Wed 12:24:00 PM 36.4045 68.1890 129° Southeast  Level Estimated
Wed 12:25:00 PM 36.3231 68.3111 130° Southeast  Level Estimated
Wed 12:26:00 PM 36.2416 68.4331 130° Southeast  Level Estimated
Wed 12:27:00 PM 36.1599 68.5548 130° Southeast  Level Estimated
Wed 12:28:00 PM 36.0782 68.6762 130° Southeast  Level Estimated
Wed 12:29:00 PM 35.9963 68.7974 130° Southeast  Level Estimated
Wed 12:30:00 PM 35.9143 68.9183 130° Southeast  Level Estimated
Wed 12:31:00 PM 35.8322 69.0390 130° Southeast  Level Estimated
Wed 12:32:00 PM 35.7499 69.1594 130° Southeast  Level Estimated
Wed 12:33:00 PM 35.6676 69.2796 130° Southeast  Level Estimated
Wed 12:34:00 PM 35.5851 69.3995 130° Southeast  Level Estimated
Wed 12:35:00 PM 35.5025 69.5192 130° Southeast  Level Estimated
Wed 12:36:00 PM 35.4198 69.6386 130° Southeast  Level Estimated
Wed 12:37:00 PM 35.3369 69.7578 130° Southeast  Level Estimated
Wed 12:38:00 PM 35.2540 69.8767 130° Southeast  Level Estimated
Wed 12:39:00 PM 35.1709 69.9955 131° Southeast  Level Estimated
Wed 12:40:00 PM 35.0877 70.1139 131° Southeast  Level Estimated
Wed 12:41:00 PM 35.0045 70.2321 131° Southeast  Level Estimated
Wed 12:42:00 PM 34.9210 70.3501 131° Southeast  Level Estimated
Wed 12:43:00 PM 34.8375 70.4678 131° Southeast  Level Estimated
Wed 12:44:00 PM 34.7539 70.5853 131° Southeast  Level Estimated
Wed 12:45:00 PM 34.6701 70.7026 131° Southeast  Level Estimated
Wed 12:46:00 PM 34.5863 70.8196 131° Southeast  Level Estimated
Wed 12:47:00 PM 34.5023 70.9364 131° Southeast  Level Estimated
Wed 12:48:00 PM 34.4182 71.0530 131° Southeast  Level Estimated
Wed 12:49:00 PM 34.3340 71.1693 131° Southeast  Level Estimated
Wed 12:50:00 PM 34.2497 71.2854 131° Southeast  Level Estimated
Wed 12:51:00 PM 34.1653 71.4012 131° Southeast  Level Estimated
Wed 12:52:00 PM 34.0808 71.5168 131° Southeast  Level Estimated
Wed 12:53:00 PM 33.9961 71.6322 131° Southeast  Level Estimated
Wed 12:54:00 PM 33.9114 71.7474 132° Southeast  Level Estimated
Wed 12:55:00 PM 33.8265 71.8623 132° Southeast  Level Estimated
Wed 12:56:00 PM 33.7416 71.9770 132° Southeast  Level Estimated
Wed 12:57:00 PM 33.6565 72.0915 132° Southeast  Level Estimated
Wed 12:58:00 PM 33.5714 72.2057 132° Southeast  Level Estimated
Wed 12:59:00 PM 33.4861 72.3198 132° Southeast  Level Estimated
Wed 01:00:00 PM 33.4007 72.4336 132° Southeast  Level Estimated
Wed 01:01:00 PM 33.3153 72.5471 132° Southeast  Level Estimated
Wed 01:02:00 PM 33.2297 72.6605 132° Southeast  Level Estimated
Wed 01:02:10 PM 27.4877 74.3889 116° Southeast 486 559 35,000  Level FlightAware ADS-B (VIKO / KTU)
Wed 01:02:40 PM 27.4589 74.4530 116° Southeast 487 560 35,000  Level FlightAware ADS-B (VIKO / KTU)
Wed 01:03:11 PM 27.4312 74.5146 116° Southeast 488 562 35,000  Level FlightAware ADS-B (VIKO / KTU)
Wed 01:03:40 PM 27.4051 74.5724 116° Southeast 487 560 35,000  Level FlightAware ADS-B (VIKO / KTU)
Wed 01:04:11 PM 27.3647 74.6619 116° Southeast 487 560 35,000  Level FlightAware ADS-B (VIKO / KTU)
Wed 01:04:41 PM 27.3343 74.7292 116° Southeast 487 560 35,000  Level FlightAware ADS-B (VIKO / KTU)
Wed 01:05:11 PM 27.3034 74.7974 116° Southeast 487 560 35,000  Level FlightAware ADS-B (VIKO / KTU)
Wed 01:05:40 PM 27.2736 74.8633 116° Southeast 489 563 35,000  Level FlightAware ADS-B (VIKO / KTU)
Wed 01:06:11 PM 27.2421 74.9325 116° Southeast 489 563 35,000  Level FlightAware ADS-B (VIKO / KTU)
Wed 01:06:41 PM 27.2116 74.9994 117° Southeast 489 563 35,000  Level FlightAware ADS-B (VIKO / KTU)
Wed 01:07:11 PM 27.1809 75.0668 116° Southeast 490 564 35,000  Level FlightAware ADS-B (VIKO / KTU)
Wed 01:07:41 PM 27.1491 75.1365 117° Southeast 490 564 35,000  Level FlightAware ADS-B (VIKO / KTU)
Wed 01:08:11 PM 27.1189 75.2026 117° Southeast 491 565 35,000  Level FlightAware ADS-B (VIKO / KTU)
Wed 01:08:41 PM 27.0870 75.2725 117° Southeast 492 566 35,000  Level FlightAware ADS-B (VIKO / KTU)
Wed 01:09:10 PM 27.0567 75.3382 117° Southeast 493 567 35,000  Level FlightAware ADS-B (VIKO / KTU)
Wed 01:09:41 PM 27.0243 75.4089 117° Southeast 497 572 35,000  Level FlightAware ADS-B (VIKO / KTU)
Wed 01:10:11 PM 26.9934 75.4761 117° Southeast 500 575 35,000  Level FlightAware ADS-B (VIKO / KTU)
Wed 01:10:41 PM 26.9614 75.5455 117° Southeast 500 575 35,000  Level FlightAware ADS-B (VIKO / KTU)
Wed 01:11:11 PM 26.9292 75.6155 117° Southeast 500 575 35,000  Level FlightAware ADS-B (VIKO / KTU)
Wed 01:11:41 PM 26.8971 75.6850 117° Southeast 501 577 35,000  Level FlightAware ADS-B (VIKO / KTU)
Wed 01:12:11 PM 26.8657 75.7526 117° Southeast 500 575 35,000  Level FlightAware ADS-B (VIKO / KTU)
Wed 01:12:41 PM 26.8337 75.8216 117° Southeast 500 575 35,000  Level FlightAware ADS-B (VIKO / KTU)
Wed 01:13:36 PM 26.7713 75.9471 120° Southeast 498 573 35,000  Level FlightAware ADS-B (VIKO / KTU)
Wed 01:14:06 PM 26.7373 76.0126 119° Southeast 498 573 35,000  Level FlightAware ADS-B (VIKO / KTU)
Wed 01:14:36 PM 26.7027 76.0795 119° Southeast 498 573 35,000  Level FlightAware ADS-B (VIKO / KTU)
Wed 01:15:07 PM 26.6675 76.1483 119° Southeast 497 572 35,000  Level FlightAware ADS-B (VIKO / KTU)
Wed 01:15:36 PM 26.6338 76.2142 119° Southeast 496 571 35,000  Level FlightAware ADS-B (VIKO / KTU)
Wed 01:16:06 PM 26.5997 76.2808 119° Southeast 494 568 35,000  Level FlightAware ADS-B (VIKO / KTU)
Wed 01:16:35 PM 26.5664 76.3460 119° Southeast 494 568 35,000  Level FlightAware ADS-B (VIKO / KTU)
Wed 01:17:06 PM 26.5317 76.4134 119° Southeast 496 571 35,000  Level FlightAware ADS-B (VIKO / KTU)
Wed 01:17:36 PM 26.4972 76.4805 119° Southeast 496 571 35,000  Level FlightAware ADS-B (VIKO / KTU)
Wed 01:18:06 PM 26.4624 76.5479 119° Southeast 496 571 35,000  Level FlightAware ADS-B (VIKO / KTU)
Wed 01:19:02 PM 26.4033 76.6714 117° Southeast 495 570 35,000  Level FlightAware ADS-B (VIKO / KTU)
Wed 01:19:31 PM 26.3723 76.7372 117° Southeast 494 568 35,000  Level FlightAware ADS-B (VIKO / KTU)
Wed 01:20:01 PM 26.3400 76.8051 117° Southeast 494 568 35,000  Level FlightAware ADS-B (VIKO / KTU)
Wed 01:20:31 PM 26.3077 76.8724 118° Southeast 493 567 35,000  Level FlightAware ADS-B (VIKO / KTU)
Wed 01:21:01 PM 26.2754 76.9395 118° Southeast 492 566 35,000  Level FlightAware ADS-B (VIKO / KTU)
Wed 01:21:32 PM 26.2423 77.0081 118° Southeast 492 566 35,000  Level FlightAware ADS-B (VIKO / KTU)
Wed 01:22:01 PM 26.2102 77.0744 118° Southeast 490 564 35,000  Level FlightAware ADS-B (VIKO / KTU)
Wed 01:22:31 PM 26.1781 77.1408 118° Southeast 487 560 35,000  Level FlightAware ADS-B (VIKO / KTU)
Wed 01:23:01 PM 26.1467 77.2057 118° Southeast 488 562 35,000  Level FlightAware ADS-B (VIKO / KTU)
Wed 01:23:31 PM 26.1143 77.2723 118° Southeast 487 560 35,000  Level FlightAware ADS-B (VIKO / KTU)
Wed 01:24:01 PM 26.0814 77.3398 118° Southeast 487 560 35,000 492 Level FlightAware ADS-B (VIKO / KTU)
Wed 01:24:32 PM 26.0494 77.4053 118° Southeast 485 558 35,500 900 Climbing FlightAware ADS-B (VIKO / KTU)
Wed 01:25:01 PM 26.0180 77.4695 118° Southeast 482 555 35,900 1,017 Climbing FlightAware ADS-B (VIKO / KTU)
Wed 01:25:31 PM 25.9858 77.5353 118° Southeast 477 549 36,500 1,000 Climbing FlightAware ADS-B (VIKO / KTU)
Wed 01:26:01 PM 25.9539 77.6002 118° Southeast 476 548 36,900 375 Climbing FlightAware ADS-B (VIKO / KTU)
Wed 01:26:51 PM 25.9020 77.7060 118° Southeast 474 545 37,000 75 Climbing FlightAware ADS-B (VIKO / KTU)
Wed 01:27:21 PM 25.8700 77.7710 118° Southeast 476 548 37,000  Level FlightAware ADS-B (VIKO / KTU)
Wed 01:27:51 PM 25.8386 77.8348 118° Southeast 475 547 37,000  Level FlightAware ADS-B (VIKO / KTU)
Wed 01:28:20 PM 25.8103 77.8921 118° Southeast 476 548 37,000  Level FlightAware ADS-B (VIKO / KTU)
Wed 01:28:30 PM 25.7972 77.9187 118° Southeast 476 548 37,000  Level FlightAware ADS-B (VIKO / KTU)
Wed 01:30:41 PM 25.6625 78.1904 118° Southeast 476 548 37,000  Level FlightAware ADS-B (VIKO / KTU)
Wed 01:31:22 PM 25.6190 78.2779 118° Southeast 480 552 37,000  Level FlightAware ADS-B (VIKO / KTU)
Wed 01:32:11 PM 25.5621 78.3932 118° Southeast 484 557 37,000  Level FlightAware ADS-B (VIKO / KTU)
Wed 01:32:41 PM 25.5301 78.4586 118° Southeast 485 558 37,000  Level FlightAware ADS-B (VIKO / KTU)
Wed 01:33:11 PM 25.4981 78.5236 118° Southeast 485 558 37,000  Level FlightAware ADS-B (VIKO / KTU)
Wed 01:33:41 PM 25.4648 78.5912 118° Southeast 485 558 37,000  Level FlightAware ADS-B (VIKO / KTU)
Wed 01:34:11 PM 25.4326 78.6564 118° Southeast 485 558 37,000  Level FlightAware ADS-B (VIKO / KTU)
Wed 01:34:40 PM 25.4036 78.7150 118° Southeast 484 557 37,000  Level FlightAware ADS-B (VIKO / KTU)
Wed 01:35:11 PM 25.3693 78.7843 118° Southeast 483 556 37,000  Level FlightAware ADS-B (VIKO / KTU)
Wed 01:35:41 PM 25.3382 78.8469 118° Southeast 481 554 37,000  Level FlightAware ADS-B (VIKO / KTU)
Wed 01:36:11 PM 25.3055 78.9129 118° Southeast 481 554 37,000  Level FlightAware ADS-B (VIKO / KTU)
Wed 01:36:41 PM 25.2721 78.9799 118° Southeast 480 552 37,000  Level FlightAware ADS-B (VIKO / KTU)
Wed 01:37:11 PM 25.2405 79.0434 118° Southeast 478 550 37,000  Level FlightAware ADS-B (VIKO / KTU)
Wed 01:37:40 PM 25.2196 79.0853 118° Southeast 479 551 37,000  Level FlightAware ADS-B (VIKO / KTU)
Wed 01:38:11 PM 25.1767 79.1713 118° Southeast 478 550 37,000  Level FlightAware ADS-B (VIKO / KTU)
Wed 01:38:41 PM 25.1464 79.2320 118° Southeast 477 549 37,000  Level FlightAware ADS-B (VIKO / KTU)
Wed 01:39:10 PM 25.1139 79.2969 118° Southeast 478 550 37,000  Level FlightAware ADS-B (VIKO / KTU)
Wed 01:39:15 PM 25.1109 79.3029 118° Southeast 478 550 37,000  Level FlightAware ADS-B (VIKO / KTU)
Wed 01:42:06 PM 24.9263 79.6697 118° Southeast 475 547 37,000  Level FlightAware ADS-B (VIKO / KTU)
Wed 01:42:19 PM 24.9153 79.6917 119° Southeast 475 547 37,000  Level FlightAware ADS-B (VIKO / KTU)
Wed 01:45:00 PM 24.6822 79.9684 133° Southeast  Level Estimated
Wed 01:46:00 PM 24.5953 80.0713 133° Southeast  Level Estimated
Wed 01:47:00 PM 24.5082 80.1740 133° Southeast  Level Estimated
Wed 01:48:00 PM 24.4211 80.2766 133° Southeast  Level Estimated
Wed 01:49:00 PM 24.3339 80.3790 133° Southeast  Level Estimated
Wed 01:50:00 PM 24.2467 80.4813 133° Southeast  Level Estimated
Wed 01:51:00 PM 24.1594 80.5834 133° Southeast  Level Estimated
Wed 01:52:00 PM 24.0720 80.6854 133° Southeast  Level Estimated
Wed 01:53:00 PM 23.9845 80.7873 133° Southeast  Level Estimated
Wed 01:54:00 PM 23.8970 80.8891 133° Southeast  Level Estimated
Wed 01:55:00 PM 23.8094 80.9907 133° Southeast  Level Estimated
Wed 01:56:00 PM 23.7218 81.0921 133° Southeast  Level Estimated
Wed 01:57:00 PM 23.6341 81.1935 133° Southeast  Level Estimated
Wed 01:58:00 PM 23.5463 81.2946 133° Southeast  Level Estimated
Wed 01:59:00 PM 23.4584 81.3957 133° Southeast  Level Estimated
Wed 02:00:00 PM 23.3705 81.4966 133° Southeast  Level Estimated
Wed 02:01:00 PM 23.2825 81.5974 134° Southeast  Level Estimated
Wed 02:02:00 PM 23.1945 81.6981 134° Southeast  Level Estimated
Wed 02:03:00 PM 23.1064 81.7986 134° Southeast  Level Estimated
Wed 02:04:00 PM 23.0182 81.8990 134° Southeast  Level Estimated
Wed 02:05:00 PM 22.9300 81.9992 134° Southeast  Level Estimated
Wed 02:06:00 PM 22.8417 82.0993 134° Southeast  Level Estimated
Wed 02:07:00 PM 22.7533 82.1993 134° Southeast  Level Estimated
Wed 02:08:00 PM 22.6649 82.2992 134° Southeast  Level Estimated
Wed 02:09:00 PM 22.5764 82.3989 134° Southeast  Level Estimated
Wed 02:10:00 PM 22.4879 82.4986 134° Southeast  Level Estimated
Wed 02:11:00 PM 22.3993 82.5981 134° Southeast  Level Estimated
Wed 02:12:00 PM 22.3106 82.6974 134° Southeast  Level Estimated
Wed 02:13:00 PM 22.2219 82.7966 134° Southeast  Level Estimated
Wed 02:14:00 PM 22.1331 82.8957 134° Southeast  Level Estimated
Wed 02:15:00 PM 22.0443 82.9947 134° Southeast  Level Estimated
Wed 02:16:00 PM 21.9554 83.0936 134° Southeast  Level Estimated
Wed 02:17:00 PM 21.8664 83.1923 134° Southeast  Level Estimated
Wed 02:18:00 PM 21.7774 83.2909 134° Southeast  Level Estimated
Wed 02:19:00 PM 21.6883 83.3894 134° Southeast  Level Estimated
Wed 02:20:00 PM 21.5991 83.4878 134° Southeast  Level Estimated
Wed 02:21:00 PM 21.5099 83.5860 134° Southeast  Level Estimated
Wed 02:22:00 PM 21.4207 83.6841 134° Southeast  Level Estimated
Wed 02:23:00 PM 21.3314 83.7822 134° Southeast  Level Estimated
Wed 02:24:00 PM 21.2420 83.8800 134° Southeast  Level Estimated
Wed 02:25:00 PM 21.1526 83.9778 134° Southeast  Level Estimated
Wed 02:26:00 PM 21.0631 84.0754 134° Southeast  Level Estimated
Wed 02:27:00 PM 20.9736 84.1730 135° Southeast  Level Estimated
Wed 02:28:00 PM 20.8840 84.2704 135° Southeast  Level Estimated
Wed 02:29:00 PM 20.7943 84.3677 135° Southeast  Level Estimated
Wed 02:30:00 PM 20.7046 84.4649 135° Southeast  Level Estimated
Wed 02:31:00 PM 20.6149 84.5619 135° Southeast  Level Estimated
Wed 02:32:00 PM 20.5250 84.6589 135° Southeast  Level Estimated
Wed 02:33:00 PM 20.4352 84.7557 135° Southeast  Level Estimated
Wed 02:34:00 PM 20.3453 84.8525 135° Southeast  Level Estimated
Wed 02:35:00 PM 20.2553 84.9491 135° Southeast  Level Estimated
Wed 02:36:00 PM 20.1653 85.0456 135° Southeast  Level Estimated
Wed 02:37:00 PM 20.0752 85.1420 135° Southeast  Level Estimated
Wed 02:38:00 PM 19.9851 85.2382 135° Southeast  Level Estimated
Wed 02:39:00 PM 19.8949 85.3344 135° Southeast  Level Estimated
Wed 02:40:00 PM 19.8046 85.4305 135° Southeast  Level Estimated
Wed 02:41:00 PM 19.7144 85.5264 135° Southeast  Level Estimated
Wed 02:42:00 PM 19.6240 85.6223 135° Southeast  Level Estimated
Wed 02:43:00 PM 19.5336 85.7180 135° Southeast  Level Estimated
Wed 02:44:00 PM 19.4432 85.8136 135° Southeast  Level Estimated
Wed 02:45:00 PM 19.3527 85.9091 135° Southeast  Level Estimated
Wed 02:46:00 PM 19.2622 86.0046 135° Southeast  Level Estimated
Wed 02:47:00 PM 19.1716 86.0999 135° Southeast  Level Estimated
Wed 02:48:00 PM 19.0810 86.1951 135° Southeast  Level Estimated
Wed 02:49:00 PM 18.9903 86.2902 135° Southeast  Level Estimated
Wed 02:50:00 PM 18.8995 86.3852 135° Southeast  Level Estimated
Wed 02:51:00 PM 18.8088 86.4801 135° Southeast  Level Estimated
Wed 02:52:00 PM 18.7180 86.5749 135° Southeast  Level Estimated
Wed 02:53:00 PM 18.6271 86.6695 135° Southeast  Level Estimated
Wed 02:54:00 PM 18.5361 86.7641 135° Southeast  Level Estimated
Wed 02:55:00 PM 18.4452 86.8586 135° Southeast  Level Estimated
Wed 02:56:00 PM 18.3542 86.9530 135° Southeast  Level Estimated
Wed 02:57:00 PM 18.2631 87.0473 135° Southeast  Level Estimated
Wed 02:58:00 PM 18.1720 87.1415 136° Southeast  Level Estimated
Wed 02:59:00 PM 18.0808 87.2356 136° Southeast  Level Estimated
Wed 03:00:00 PM 17.9896 87.3296 136° Southeast  Level Estimated
Wed 03:01:00 PM 17.8984 87.4235 136° Southeast  Level Estimated
Wed 03:02:00 PM 17.8071 87.5173 136° Southeast  Level Estimated
Wed 03:03:00 PM 17.7158 87.6110 136° Southeast  Level Estimated
Wed 03:04:00 PM 17.6244 87.7046 136° Southeast  Level Estimated
Wed 03:05:00 PM 17.5330 87.7981 136° Southeast  Level Estimated
Wed 03:06:00 PM 17.4415 87.8915 136° Southeast  Level Estimated
Wed 03:07:00 PM 17.3500 87.9848 136° Southeast  Level Estimated
Wed 03:08:00 PM 17.2584 88.0781 136° Southeast  Level Estimated
Wed 03:09:00 PM 17.1668 88.1712 136° Southeast  Level Estimated
Wed 03:10:00 PM 17.0752 88.2643 136° Southeast  Level Estimated
Wed 03:11:00 PM 16.9835 88.3572 136° Southeast  Level Estimated
Wed 03:12:00 PM 16.8918 88.4501 136° Southeast  Level Estimated
Wed 03:13:00 PM 16.8000 88.5429 136° Southeast  Level Estimated
Wed 03:14:00 PM 16.7082 88.6356 136° Southeast  Level Estimated
Wed 03:15:00 PM 16.6164 88.7281 136° Southeast  Level Estimated
Wed 03:16:00 PM 16.5245 88.8207 136° Southeast  Level Estimated
Wed 03:17:00 PM 16.4326 88.9131 136° Southeast  Level Estimated
Wed 03:18:00 PM 16.3406 89.0054 136° Southeast  Level Estimated
Wed 03:19:00 PM 16.2486 89.0976 136° Southeast  Level Estimated
Wed 03:20:00 PM 16.1565 89.1898 136° Southeast  Level Estimated
Wed 03:21:00 PM 16.0644 89.2819 136° Southeast  Level Estimated
Wed 03:22:00 PM 15.9723 89.3739 136° Southeast  Level Estimated
Wed 03:23:00 PM 15.8801 89.4658 136° Southeast  Level Estimated
Wed 03:24:00 PM 15.7879 89.5576 136° Southeast  Level Estimated
Wed 03:25:00 PM 15.6957 89.6493 136° Southeast  Level Estimated
Wed 03:26:00 PM 15.6034 89.7410 136° Southeast  Level Estimated
Wed 03:27:00 PM 15.5111 89.8326 136° Southeast  Level Estimated
Wed 03:28:00 PM 15.4187 89.9240 136° Southeast  Level Estimated
Wed 03:29:00 PM 15.3263 90.0155 136° Southeast  Level Estimated
Wed 03:30:00 PM 15.2339 90.1068 136° Southeast  Level Estimated
Wed 03:31:00 PM 15.1414 90.1980 136° Southeast  Level Estimated
Wed 03:32:00 PM 15.0489 90.2892 136° Southeast  Level Estimated
Wed 03:33:00 PM 14.9564 90.3803 136° Southeast  Level Estimated
Wed 03:34:00 PM 14.8638 90.4713 136° Southeast  Level Estimated
Wed 03:35:00 PM 14.7711 90.5622 136° Southeast  Level Estimated
Wed 03:36:00 PM 14.6785 90.6531 137° Southeast  Level Estimated
Wed 03:37:00 PM 14.5858 90.7439 137° Southeast  Level Estimated
Wed 03:38:00 PM 14.4931 90.8346 137° Southeast  Level Estimated
Wed 03:39:00 PM 14.4003 90.9252 137° Southeast  Level Estimated
Wed 03:40:00 PM 14.3076 91.0157 137° Southeast  Level Estimated
Wed 03:41:00 PM 14.2147 91.1062 137° Southeast  Level Estimated
Wed 03:42:00 PM 14.1219 91.1966 137° Southeast  Level Estimated
Wed 03:43:00 PM 14.0290 91.2869 137° Southeast  Level Estimated
Wed 03:44:00 PM 13.9360 91.3772 137° Southeast  Level Estimated
Wed 03:45:00 PM 13.8431 91.4674 137° Southeast  Level Estimated
Wed 03:46:00 PM 13.7501 91.5575 137° Southeast  Level Estimated
Wed 03:47:00 PM 13.6571 91.6475 137° Southeast  Level Estimated
Wed 03:48:00 PM 13.5640 91.7375 137° Southeast  Level Estimated
Wed 03:49:00 PM 13.4709 91.8274 137° Southeast  Level Estimated
Wed 03:50:00 PM 13.3778 91.9172 137° Southeast  Level Estimated
Wed 03:51:00 PM 13.2846 92.0070 137° Southeast  Level Estimated
Wed 03:52:00 PM 13.1915 92.0966 137° Southeast  Level Estimated
Wed 03:53:00 PM 13.0982 92.1863 137° Southeast  Level Estimated
Wed 03:54:00 PM 13.0050 92.2758 137° Southeast  Level Estimated
Wed 03:55:00 PM 12.9117 92.3653 137° Southeast  Level Estimated
Wed 03:56:00 PM 12.8184 92.4547 137° Southeast  Level Estimated
Wed 03:57:00 PM 12.7251 92.5441 137° Southeast  Level Estimated
Wed 03:58:00 PM 12.6317 92.6333 137° Southeast  Level Estimated
Wed 03:59:00 PM 12.5383 92.7226 137° Southeast  Level Estimated
Wed 04:00:00 PM 12.4449 92.8117 137° Southeast  Level Estimated
Wed 04:01:00 PM 12.3514 92.9008 137° Southeast  Level Estimated
Wed 04:02:00 PM 12.2579 92.9899 137° Southeast  Level Estimated
Wed 04:03:00 PM 12.1644 93.0788 137° Southeast  Level Estimated
Wed 04:04:00 PM 12.0709 93.1677 137° Southeast  Level Estimated
Wed 04:05:00 PM 11.9773 93.2566 137° Southeast  Level Estimated
Wed 04:06:00 PM 11.8837 93.3453 137° Southeast  Level Estimated
Wed 04:07:00 PM 11.7901 93.4341 137° Southeast  Level Estimated
Wed 04:08:00 PM 11.6964 93.5227 137° Southeast  Level Estimated
Wed 04:09:00 PM 11.6027 93.6113 137° Southeast  Level Estimated
Wed 04:10:00 PM 11.5090 93.6998 137° Southeast  Level Estimated
Wed 04:11:00 PM 11.4153 93.7883 137° Southeast  Level Estimated
Wed 04:12:00 PM 11.3215 93.8767 137° Southeast  Level Estimated
Wed 04:13:00 PM 11.2277 93.9651 137° Southeast  Level Estimated
Wed 04:14:00 PM 11.1339 94.0534 137° Southeast  Level Estimated
Wed 04:15:00 PM 11.0401 94.1416 137° Southeast  Level Estimated
Wed 04:16:00 PM 10.9462 94.2298 137° Southeast  Level Estimated
Wed 04:17:00 PM 10.8524 94.3180 137° Southeast  Level Estimated
Wed 04:18:00 PM 10.7584 94.4061 137° Southeast  Level Estimated
Wed 04:19:00 PM 10.6645 94.4941 137° Southeast  Level Estimated
Wed 04:20:00 PM 10.5705 94.5820 137° Southeast  Level Estimated
Wed 04:21:00 PM 10.4765 94.6700 137° Southeast  Level Estimated
Wed 04:22:00 PM 10.3825 94.7578 137° Southeast  Level Estimated
Wed 04:23:00 PM 10.2885 94.8456 137° Southeast  Level Estimated
Wed 04:24:00 PM 10.1944 94.9334 137° Southeast  Level Estimated
Wed 04:25:00 PM 10.1003 95.0211 137° Southeast  Level Estimated
Wed 04:26:00 PM 10.0062 95.1088 137° Southeast  Level Estimated
Wed 04:27:00 PM 9.9121 95.1964 137° Southeast  Level Estimated
Wed 04:28:00 PM 9.8180 95.2839 137° Southeast  Level Estimated
Wed 04:29:00 PM 9.7238 95.3714 138° Southeast  Level Estimated
Wed 04:30:00 PM 9.6296 95.4589 138° Southeast  Level Estimated
Wed 04:31:00 PM 9.5354 95.5463 138° Southeast  Level Estimated
Wed 04:32:00 PM 9.4411 95.6336 138° Southeast  Level Estimated
Wed 04:33:00 PM 9.3469 95.7209 138° Southeast  Level Estimated
Wed 04:34:00 PM 9.2526 95.8082 138° Southeast  Level Estimated
Wed 04:35:00 PM 9.1583 95.8954 138° Southeast  Level Estimated
Wed 04:36:00 PM 9.0639 95.9826 138° Southeast  Level Estimated
Wed 04:37:00 PM 8.9696 96.0697 138° Southeast  Level Estimated
Wed 04:38:00 PM 8.8752 96.1568 138° Southeast  Level Estimated
Wed 04:39:00 PM 8.7808 96.2438 138° Southeast  Level Estimated
Wed 04:40:00 PM 8.6864 96.3308 138° Southeast  Level Estimated
Wed 04:41:00 PM 8.5920 96.4178 138° Southeast  Level Estimated
Wed 04:42:00 PM 8.4976 96.5047 138° Southeast  Level Estimated
Wed 04:43:00 PM 8.4031 96.5915 138° Southeast  Level Estimated
Wed 04:44:00 PM 8.3086 96.6784 138° Southeast  Level Estimated
Wed 04:45:00 PM 8.2141 96.7651 138° Southeast  Level Estimated
Wed 04:46:00 PM 8.1196 96.8519 138° Southeast  Level Estimated
Wed 04:47:00 PM 8.0250 96.9386 138° Southeast  Level Estimated
Wed 04:48:00 PM 7.9305 97.0252 138° Southeast  Level Estimated
Wed 04:49:00 PM 7.8359 97.1118 138° Southeast  Level Estimated
Wed 04:50:00 PM 7.7413 97.1984 138° Southeast  Level Estimated
Wed 04:51:00 PM 7.6467 97.2849 138° Southeast  Level Estimated
Wed 04:52:00 PM 7.5521 97.3714 138° Southeast  Level Estimated
Wed 04:53:00 PM 7.4574 97.4579 138° Southeast  Level Estimated
Wed 04:54:00 PM 7.3628 97.5443 138° Southeast  Level Estimated
Wed 04:55:00 PM 7.2681 97.6307 138° Southeast  Level Estimated
Wed 04:56:00 PM 7.1734 97.7170 138° Southeast  Level Estimated
Wed 04:57:00 PM 7.0787 97.8034 138° Southeast  Level Estimated
Wed 04:58:00 PM 6.9840 97.8896 138° Southeast  Level Estimated
Wed 04:58:30 PM 7.5209 98.7593 142° Southeast 460 529 37,000  Level FlightAware ADS-B (WMKP / PEN)
Wed 04:59:00 PM 6.8892 97.9759 138° Southeast  Level Estimated
Wed 04:59:25 PM 7.4266 98.8346 142° Southeast 459 528 37,000  Level FlightAware ADS-B (WMKP / PEN)
Wed 05:01:50 PM 7.1857 99.0266 142° Southeast 457 526 37,000  Level FlightAware ADS-B (WMKP / PEN)
Wed 05:02:29 PM 7.1229 99.0765 142° Southeast 456 525 37,000  Level FlightAware ADS-B (WMKP / PEN)
Wed 05:03:29 PM 7.0209 99.1578 142° Southeast 456 525 37,000  Level FlightAware ADS-B (WMKP / PEN)
Wed 05:04:10 PM 6.9536 99.2113 142° Southeast 456 525 37,000  Level FlightAware ADS-B (WMKP / PEN)
Wed 05:04:48 PM 6.8898 99.2620 142° Southeast 457 526 37,000  Level FlightAware ADS-B (WMKP / PEN)
Wed 05:05:30 PM 6.8237 99.3145 142° Southeast 458 527 37,000  Level FlightAware ADS-B (WMKP / PEN)
Wed 05:06:10 PM 6.7545 99.3696 142° Southeast 458 527 37,000  Level FlightAware ADS-B (WMKP / PEN)
Wed 05:06:50 PM 6.6881 99.4223 142° Southeast 460 529 37,000  Level FlightAware ADS-B (WMKP / PEN)
Wed 05:07:30 PM 6.6229 99.4740 142° Southeast 459 528 37,000  Level FlightAware ADS-B (WMKP / PEN)
Wed 05:08:10 PM 6.5552 99.5279 142° Southeast 459 528 37,000  Level FlightAware ADS-B (WMKP / PEN)
Wed 05:08:50 PM 6.4867 99.5822 142° Southeast 459 528 37,000  Level FlightAware ADS-B (WMKP / PEN)
Wed 05:09:30 PM 6.4206 99.6345 142° Southeast 458 527 37,000  Level FlightAware ADS-B (WMKP / PEN)
Wed 05:10:10 PM 6.3540 99.6874 142° Southeast 458 527 37,000  Level FlightAware ADS-B (WMKP / PEN)
Wed 05:11:10 PM 6.2530 99.7675 142° Southeast 458 527 37,000  Level FlightAware ADS-B (WMKP / PEN)
Wed 05:11:50 PM 6.1872 99.8196 142° Southeast 459 528 37,000  Level FlightAware ADS-B (WMKP / PEN)
Wed 05:12:30 PM 6.1197 99.8731 142° Southeast 461 531 37,000  Level FlightAware ADS-B (WMKP / PEN)
Wed 05:13:10 PM 6.0536 99.9254 142° Southeast 461 531 37,000  Level FlightAware ADS-B (WMKP / PEN)
Wed 05:13:50 PM 5.9860 99.9790 142° Southeast 463 533 37,000  Level FlightAware ADS-B (WMKP / PEN)
Wed 05:14:30 PM 5.9193 100.0317 142° Southeast 462 532 37,000  Level FlightAware ADS-B (WMKP / PEN)
Wed 05:15:10 PM 5.8503 100.0863 142° Southeast 462 532 37,000  Level FlightAware ADS-B (WMKP / PEN)
Wed 05:15:50 PM 5.7835 100.1391 142° Southeast 461 531 37,000  Level FlightAware ADS-B (WMKP / PEN)
Wed 05:16:30 PM 5.7161 100.1924 142° Southeast 461 531 37,000  Level FlightAware ADS-B (WMKP / PEN)
Wed 05:17:10 PM 5.6510 100.2439 142° Southeast 461 531 37,000  Level FlightAware ADS-B (WMKP / PEN)
Wed 05:17:50 PM 5.5823 100.2982 142° Southeast 461 531 37,000  Level FlightAware ADS-B (WMKP / PEN)
Wed 05:18:50 PM 5.4816 100.3776 142° Southeast 461 531 37,000  Level FlightAware ADS-B (WMKP / PEN)
Wed 05:19:30 PM 5.4165 100.4291 142° Southeast 461 531 37,000  Level FlightAware ADS-B (WMKP / PEN)
Wed 05:20:10 PM 5.3473 100.4837 142° Southeast 460 529 37,000  Level FlightAware ADS-B (WMKP / PEN)
Wed 05:20:50 PM 5.2807 100.5362 142° Southeast 459 528 37,000  Level FlightAware ADS-B (WMKP / PEN)
Wed 05:21:30 PM 5.2139 100.5889 142° Southeast 462 532 37,000  Level FlightAware ADS-B (WMKP / PEN)
Wed 05:22:10 PM 5.1455 100.6428 142° Southeast 463 533 37,000  Level FlightAware ADS-B (WMKP / PEN)
Wed 05:22:50 PM 5.0798 100.6947 142° Southeast 463 533 37,000  Level FlightAware ADS-B (WMKP / PEN)
Wed 05:23:30 PM 5.0111 100.7488 142° Southeast 465 535 37,000  Level FlightAware ADS-B (WMKP / PEN)
Wed 05:24:08 PM 4.9456 100.8004 142° Southeast 466 536 37,000  Level FlightAware ADS-B (WMKP / PEN)
Wed 05:24:50 PM 4.8779 100.8536 142° Southeast 466 536 37,000  Level FlightAware ADS-B (WMKP / PEN)
Wed 05:25:24 PM 4.8172 100.9015 142° Southeast 466 536 37,000  Level FlightAware ADS-B
Wed 05:25:55 PM 4.7641 100.9433 142° Southeast 468 539 37,000  Level FlightAware ADS-B
Wed 05:26:29 PM 4.7057 100.9893 142° Southeast 469 540 37,000  Level FlightAware ADS-B (WMKP / PEN)
Wed 05:27:02 PM 4.6503 101.0329 142° Southeast 470 541 37,000  Level FlightAware ADS-B
Wed 05:27:27 PM 4.6067 101.0670 143° Southeast 471 542 37,000  Level FlightAware ADS-B
Wed 05:27:50 PM 4.5637 101.0925 154° Southeast 474 545 37,000 -632 Level FlightAware ADS-B (WMKP / PEN)
Wed 05:28:24 PM 4.4924 101.1176 163° South 474 545 36,400 -1,479 Descending FlightAware ADS-B
Wed 05:29:03 PM 4.4110 101.1411 164° South 472 543 35,200 -1,769 Descending FlightAware ADS-B
Wed 05:29:42 PM 4.3291 101.1645 164° South 472 543 34,100 -1,586 Descending FlightAware ADS-B
Wed 05:30:30 PM 4.2335 101.1922 164° South 442 509 32,900 -1,636 Descending FlightAware ADS-B (WMKP / PEN)
Wed 05:31:10 PM 4.1565 101.2148 164° South 432 497 31,700 -1,808 Descending FlightAware ADS-B (WMKP / PEN)
Wed 05:31:43 PM 4.0938 101.2332 164° South 424 488 30,700 -1,895 Descending FlightAware ADS-B (WMKP / PEN)
Wed 05:32:45 PM 3.9775 101.2670 164° South 413 475 28,700 -1,957 Descending FlightAware ADS-B
Wed 05:33:15 PM 3.9226 101.2831 164° South 409 471 27,700 -2,000 Descending FlightAware ADS-B
Wed 05:33:45 PM 3.8673 101.2991 164° South 406 467 26,700 -2,164 Descending FlightAware ADS-B
Wed 05:34:16 PM 3.8123 101.3166 158° South 409 471 25,500 -3,000 Descending FlightAware ADS-B
Wed 05:34:55 PM 3.7402 101.3439 164° South 434 499 23,200 -3,171 Descending FlightAware ADS-B
Wed 05:35:26 PM 3.6807 101.3597 166° South 438 504 21,800 -2,571 Descending FlightAware ADS-B
Wed 05:36:05 PM 3.6038 101.3792 166° South 439 505 20,200 -2,571 Descending FlightAware ADS-B
Wed 05:36:36 PM 3.5429 101.3947 166° South 438 504 18,800 -2,486 Descending FlightAware ADS-B
Wed 05:37:15 PM 3.4657 101.4144 165° South 426 490 17,300 -2,400 Descending FlightAware ADS-B
Wed 05:37:46 PM 3.4081 101.4292 165° South 416 479 16,000 -2,925 Descending FlightAware ADS-B
Wed 05:38:35 PM 3.3176 101.4525 165° South 397 457 13,400 -3,300 Descending FlightAware ADS-B
Wed 05:39:06 PM 3.2637 101.4664 165° South 387 445 11,600 -3,600 Descending FlightAware ADS-B
Wed 05:39:35 PM 3.2145 101.4790 165° South 362 417 9,800 -3,720 Descending FlightAware ADS-B
Wed 05:39:56 PM 3.1815 101.4875 166° South 349 402 8,500 -3,805 Descending FlightAware ADS-B
Wed 05:40:16 PM 3.1510 101.4953 166° South 340 391 7,200 -3,600 Descending FlightAware ADS-B
Wed 05:40:36 PM 3.1199 101.5033 166° South 328 377 6,100 -2,615 Descending FlightAware ADS-B
Wed 05:40:55 PM 3.0928 101.5102 166° South 309 356 5,500 -1,350 Descending FlightAware ADS-B
Wed 05:41:16 PM 3.0660 101.5172 165° South 277 319 5,200 -900 Descending FlightAware ADS-B
Wed 05:41:35 PM 3.0437 101.5253 159° South 261 300 4,900 -947 Descending FlightAware ADS-B
Wed 05:44:00 PM 2.7812 101.6878 148° Southeast  Level Estimated
Wed 05:45:00 PM 2.7456 101.7099 148° Southeast  Level Estimated
Wed 05:46:00 PM 2.7456 101.7099 North  Level Estimated
Wed 05:47:00 PM 2.7456 101.7099 North  Level Estimated
Wed 05:48:00 PM 2.7456 101.7099 North  Level Estimated
Wed 05:49:00 PM 2.7456 101.7099 North  Level Estimated
Wed 05:50:00 PM 2.7456 101.7099 North  Level Estimated
Wed 05:51:00 PM 2.7456 101.7099 North  Level Estimated
Wed 05:52:00 PM 2.7456 101.7099 North  Level Estimated
Wed 05:53:00 PM 2.7456 101.7099 North  Level Estimated
Wed 05:54:00 PM 2.7456 101.7099 North  Level Estimated
Wed 05:55:00 PM 2.7456 101.7099 North  Level Estimated
Wed 05:56:00 PM 2.7456 101.7099 North  Level Estimated
Wed 05:57:00 PM 2.7456 101.7099 North  Level Estimated
Wed 05:58:00 PM 2.7456 101.7099 North  Level Estimated
Wed 05:59:00 PM 2.7456 101.7099 North  Level Estimated
Wed 06:00:00 PM 2.7456 101.7099 North  Level Estimated
Wed 06:01:00 PM 2.7456 101.7099 North  Level Estimated
Wed 06:02:00 PM 2.7456 101.7099 North  Level Estimated
Wed 06:03:00 PM 2.7456 101.7099 North  Level Estimated
Wed 06:04:00 PM 2.7456 101.7099 North  Level Estimated
Wed 06:05:00 PM 2.7456 101.7099 North  Level Estimated
Wed 06:06:00 PM 2.7456 101.7099 North  Level Estimated
Wed 06:07:00 PM 2.7456 101.7099 North  Level Estimated
Wed 06:08:00 PM 2.7456 101.7099 North  Level Estimated
Wed 06:09:00 PM 2.7456 101.7099 North  Level Estimated
Wed 06:10:00 PM 2.7456 101.7099 North  Level Estimated
Wed 06:11:00 PM 2.7456 101.7099 North  Level Estimated
Wed 06:12:00 PM 2.7456 101.7099 North  Level Estimated
Wed 06:13:00 PM 2.7456 101.7099 North  Level Estimated
Wed 06:14:00 PM 2.7456 101.7099 North  Level Estimated
Wed 06:15:00 PM 2.7456 101.7099 North  Level Estimated
Wed 06:16:00 PM 2.7456 101.7099 North  Level Estimated
Wed 06:17:00 PM 2.7456 101.7099 North  Level Estimated

Login

Don't have an account? Register now (free) for customized features, flight alerts, and more!